createdAt,value
2018-09-11T00:02:22.981Z,5.54
2018-09-11T00:08:18.030Z,4.69
2018-09-11T00:14:12.979Z,4.88
2018-09-11T00:20:07.993Z,5.49
2018-09-11T00:26:03.039Z,5.02
2018-09-11T00:31:58.030Z,4.44
2018-09-11T00:37:53.008Z,4.21
2018-09-11T00:43:48.027Z,6.41
2018-09-11T00:49:43.017Z,7.46
2018-09-11T00:55:38.043Z,5.68
2018-09-11T01:01:33.065Z,4.25
2018-09-11T01:07:28.085Z,5.13
2018-09-11T01:13:23.078Z,5.04
2018-09-11T01:19:18.033Z,5.76
2018-09-11T01:25:13.075Z,5.21
2018-09-11T01:31:08.052Z,6.07
2018-09-11T01:37:03.112Z,4.34
2018-09-11T01:42:58.081Z,5.3
2018-09-11T01:48:53.076Z,5.13
2018-09-11T01:54:48.079Z,5.27
2018-09-11T02:00:43.147Z,5.15
2018-09-11T02:06:38.125Z,4.7
2018-09-11T02:12:33.088Z,7.04
2018-09-11T02:18:28.101Z,4.77
2018-09-11T02:24:23.113Z,4.93
2018-09-11T02:30:18.126Z,4.83
2018-09-11T02:36:13.112Z,4.72
2018-09-11T02:42:08.166Z,5.24
2018-09-11T02:48:03.162Z,5.29
2018-09-11T02:53:58.166Z,4.76
2018-09-11T02:59:53.202Z,8.67
2018-09-11T03:05:48.155Z,9.53
2018-09-11T03:11:43.147Z,5.25
2018-09-11T03:17:38.163Z,9.09
2018-09-11T03:23:33.178Z,7.11
2018-09-11T03:29:28.193Z,5.81
2018-09-11T03:35:23.189Z,6.61
2018-09-11T03:41:18.174Z,5.37
2018-09-11T03:47:13.199Z,8.2
2018-09-11T03:53:08.220Z,5.03
2018-09-11T03:59:03.194Z,7.13
2018-09-11T04:04:58.217Z,5.48
2018-09-11T04:10:53.249Z,6.15
2018-09-11T04:16:48.268Z,8.03
2018-09-11T04:22:43.214Z,5.94
2018-09-11T04:28:38.250Z,4.93
2018-09-11T04:34:33.251Z,7.49
2018-09-11T04:40:28.245Z,5.8
2018-09-11T04:46:23.233Z,8.43
2018-09-11T04:52:18.298Z,12.19
2018-09-11T04:58:13.319Z,5.62
2018-09-11T05:04:08.245Z,7.48
2018-09-11T05:10:03.325Z,8.31
2018-09-11T05:15:58.278Z,10.05
2018-09-11T05:21:53.281Z,6.66
2018-09-11T05:27:48.287Z,5.87
2018-09-11T05:33:43.291Z,6.05
2018-09-11T05:39:38.292Z,7.3
2018-09-11T05:45:33.291Z,10.35
2018-09-11T05:51:28.323Z,14.6
2018-09-11T05:57:23.304Z,10.67
2018-09-11T06:03:18.332Z,6.78
2018-09-11T06:09:13.325Z,7.55
2018-09-11T06:15:08.358Z,9.75
2018-09-11T06:21:03.330Z,11.43
2018-09-11T06:26:58.358Z,8.9
2018-09-11T06:32:53.326Z,9.35
2018-09-11T06:38:48.353Z,9.59
2018-09-11T06:44:43.380Z,11.98
2018-09-11T06:50:38.359Z,10.4
2018-09-11T06:56:33.368Z,8.88
2018-09-11T07:02:28.377Z,7.37
2018-09-11T07:08:23.374Z,8.7
2018-09-11T07:14:18.375Z,8.18
2018-09-11T07:20:13.605Z,15.08
2018-09-11T07:26:08.470Z,8.79
2018-09-11T07:32:03.390Z,9.22
2018-09-11T07:37:58.404Z,10.46
2018-09-11T07:43:53.482Z,8.63
2018-09-11T07:49:48.414Z,11.45
2018-09-11T07:55:43.431Z,13.57
2018-09-11T08:01:38.463Z,14.71
2018-09-11T08:07:33.432Z,13.57
2018-09-11T08:13:28.468Z,13
2018-09-11T08:19:23.490Z,16.28
2018-09-11T08:25:18.459Z,13.38
2018-09-11T08:31:13.477Z,13.45
2018-09-11T08:37:08.481Z,16.19
2018-09-11T08:43:03.503Z,11.03
2018-09-11T08:48:58.467Z,12.11
2018-09-11T08:54:53.479Z,12.97
2018-09-11T09:00:48.484Z,12.92
2018-09-11T09:06:43.483Z,10.18
2018-09-11T09:12:38.498Z,9.92
2018-09-11T09:18:33.496Z,12.77
2018-09-11T09:24:28.505Z,11.35
2018-09-11T09:30:23.498Z,13.52
2018-09-11T09:36:18.544Z,12.6
2018-09-11T09:42:13.606Z,11.84
2018-09-11T09:48:08.561Z,11.1
2018-09-11T09:54:03.525Z,14.1
2018-09-11T09:59:58.552Z,17.26
2018-09-11T10:05:53.554Z,10.58
2018-09-11T10:11:48.560Z,10.33
2018-09-11T10:17:43.648Z,12.05
2018-09-11T10:23:38.570Z,12.37
2018-09-11T10:29:33.588Z,9.15
2018-09-11T10:35:28.570Z,11.45
2018-09-11T10:41:23.584Z,10.93
2018-09-11T10:47:18.629Z,12.63
2018-09-11T10:53:13.584Z,10.2
2018-09-11T10:59:08.638Z,9.35
2018-09-11T11:05:03.634Z,10.04
2018-09-11T11:10:58.620Z,10.07
2018-09-11T11:16:53.667Z,10.83
2018-09-11T11:22:48.657Z,6.71
2018-09-11T11:28:43.623Z,7.78
2018-09-11T11:34:38.621Z,7.4
2018-09-11T11:40:33.667Z,7.98
2018-09-11T11:46:28.646Z,6.72
2018-09-11T11:52:23.666Z,9.13
2018-09-11T11:58:18.700Z,6.44
2018-09-11T12:04:13.669Z,6.11
2018-09-11T12:10:08.705Z,5.48
2018-09-11T12:16:03.723Z,5.28
2018-09-11T12:21:58.694Z,6.24
2018-09-11T12:27:53.678Z,3.88
2018-09-11T12:33:48.713Z,4.12
2018-09-11T12:39:43.726Z,4.42
2018-09-11T12:45:38.720Z,3.48
2018-09-11T12:51:33.716Z,3.23
2018-09-11T12:57:28.722Z,3.24
2018-09-11T13:03:23.732Z,3.9
2018-09-11T13:09:18.816Z,4.41
2018-09-11T13:15:13.830Z,2.61
2018-09-11T13:21:08.786Z,2.96
2018-09-11T13:27:03.760Z,2.86
2018-09-11T13:32:58.776Z,2.91
2018-09-11T13:38:53.809Z,2.85
2018-09-11T13:44:48.772Z,2.9
2018-09-11T13:50:43.787Z,2.27
2018-09-11T13:56:38.824Z,3.76
2018-09-11T14:02:33.862Z,1.9
2018-09-11T14:08:28.834Z,2.48
2018-09-11T14:14:23.812Z,2.22
2018-09-11T14:20:18.807Z,2.29
2018-09-11T14:26:13.819Z,2.6
2018-09-11T14:32:08.842Z,2.09
2018-09-11T14:38:03.860Z,2.53
2018-09-11T14:43:58.866Z,3.39
2018-09-11T14:49:53.826Z,3.6
2018-09-11T14:55:48.901Z,2.9
2018-09-11T15:01:43.868Z,3.33
2018-09-11T15:07:38.909Z,4.11
2018-09-11T15:13:33.901Z,3.43
2018-09-11T15:19:28.877Z,4.96
2018-09-11T15:25:23.885Z,3.26
2018-09-11T15:31:18.900Z,3.87
2018-09-11T15:37:13.886Z,4.55
2018-09-11T15:43:08.907Z,3.57
2018-09-11T15:49:03.901Z,3.23
2018-09-11T15:54:58.894Z,5.4
2018-09-11T16:00:53.918Z,3.51
2018-09-11T16:06:48.904Z,3.42
2018-09-11T16:12:43.907Z,3.68
2018-09-11T16:18:38.927Z,4.26
2018-09-11T16:24:33.928Z,4.34
2018-09-11T16:30:28.949Z,5.18
2018-09-11T16:36:23.953Z,5.34
2018-09-11T16:42:18.969Z,6.7
2018-09-11T16:48:13.953Z,4.04
2018-09-11T16:54:09.003Z,5.66
2018-09-11T17:00:04.223Z,5.87
2018-09-11T17:05:58.993Z,4.44
2018-09-11T17:11:54.024Z,5.3
2018-09-11T17:17:49.066Z,6.87
2018-09-11T17:23:44.017Z,8.65
2018-09-11T17:29:39.056Z,4.33
2018-09-11T17:35:34.080Z,4.56
2018-09-11T17:41:29.039Z,6.37
2018-09-11T17:47:24.013Z,7.91
2018-09-11T17:53:19.058Z,5.43
2018-09-11T17:59:14.062Z,10.39
2018-09-11T18:05:09.127Z,7.28
2018-09-11T18:11:04.063Z,9.09
2018-09-11T18:16:59.050Z,8.04
2018-09-11T18:22:54.072Z,6.21
2018-09-11T18:28:49.057Z,10.85
2018-09-11T18:34:44.100Z,5.93
2018-09-11T18:40:39.057Z,5.2
2018-09-11T18:46:34.090Z,7.58
2018-09-11T18:52:29.086Z,7.35
2018-09-11T18:58:24.102Z,10.37
2018-09-11T19:04:19.090Z,5.8
2018-09-11T19:10:14.109Z,7.1
2018-09-11T19:16:09.132Z,7.29
2018-09-11T19:22:04.112Z,9.06
2018-09-11T19:27:59.131Z,12.4
2018-09-11T19:33:54.117Z,5.48
2018-09-11T19:39:49.143Z,8.1
2018-09-11T19:45:44.128Z,6.93
2018-09-11T19:51:39.150Z,7.71
2018-09-11T19:57:34.154Z,6.85
2018-09-11T20:03:29.151Z,5.8
2018-09-11T20:09:24.200Z,5.63
2018-09-11T20:15:19.244Z,6.53
2018-09-11T20:21:14.182Z,6.21
2018-09-11T20:27:09.198Z,8.41
2018-09-11T20:33:04.175Z,7.34
2018-09-11T20:38:59.187Z,7.08
2018-09-11T20:44:54.223Z,7.81
2018-09-11T20:50:49.196Z,5.91
2018-09-11T20:56:44.269Z,7.81
2018-09-11T21:02:39.196Z,9.84
2018-09-11T21:08:34.244Z,5.99
2018-09-11T21:14:29.319Z,7.63
2018-09-11T21:20:24.279Z,5.93
2018-09-11T21:26:19.227Z,5.6
2018-09-11T21:32:14.266Z,6.15
2018-09-11T21:38:09.254Z,5
2018-09-11T21:44:04.259Z,7.1
2018-09-11T21:49:59.263Z,5.53
2018-09-11T21:55:54.272Z,6.09
2018-09-11T22:01:49.281Z,6.04
2018-09-11T22:07:44.287Z,8.61
2018-09-11T22:13:39.289Z,5.4
2018-09-11T22:19:34.285Z,5.82
2018-09-11T22:25:29.306Z,8.76
2018-09-11T22:31:24.324Z,6.12
2018-09-11T22:37:19.387Z,6.69
2018-09-11T22:43:14.343Z,6.46
2018-09-11T22:49:09.345Z,5.37
2018-09-11T22:55:04.324Z,21.9
2018-09-11T23:00:59.331Z,7.4
2018-09-11T23:06:54.327Z,6.72
2018-09-11T23:12:49.360Z,6.14
2018-09-11T23:18:44.349Z,6.26
2018-09-11T23:24:39.376Z,6.65
2018-09-11T23:30:34.406Z,6.15
2018-09-11T23:36:29.421Z,5.87
2018-09-11T23:42:24.388Z,6.34
2018-09-11T23:48:19.411Z,5.6
2018-09-11T23:54:14.427Z,6.57
